• Join FlightAware (Why Join?)
  • Login
  • US Flag 
06:23AM EST


 

Airport Tracker/Info


-or-


 

Live Flight TrackerFlight Track Log ✈ EJA951 ✈ 15-Jul-2013 ✈ KSSI - KOKC

Flight Track Log - Related Links

Times and Time Zones

All times are in EDT time to prevent confusion due to time zone crossing. See the EJA951 flight status page for this flight to view local times or setup timezone preferences in your user account.

Time Position Orientation Groundspeed Altitude Reporting Facility
EDT Latitude Longitude Course Direction KTS MPH feet Rate Location/Type
04:45PM 31.2158 -81.3767 345° North 308 354 4,400  Level Jacksonville Center
04:46PM 31.2664 -81.4222 322° Northwest 220 253 8,800 3,120 Climbing Jacksonville Center
04:47PM 31.3300 -81.4892 318° Northwest 276 318 10,700 2,100 Climbing Jacksonville Center
04:48PM 31.9296 -81.6172 345° North  Level FlightAware Approximate
04:48PM 31.4122 -81.5633 322° Northwest 354 407 13,000  Level Jacksonville Center
04:49PM 31.4944 -81.6428 321° Northwest 388 447 14,600 1,500 Climbing Jacksonville Center
04:50PM 31.5703 -81.7172 320° Northwest 394 453 16,000 1,500 Climbing Jacksonville Center
04:51PM 31.6672 -81.8111 321° Northwest 399 459 17,700 1,440 Climbing Jacksonville Center
04:52PM 31.7469 -81.8883 321° Northwest 406 467 18,900 1,500 Climbing Jacksonville Center
04:53PM 31.8458 -81.9828 321° Northwest 412 474 20,700 2,040 Climbing Jacksonville Center
04:55PM 32.0117 -82.1431 321° Northwest 428 493 24,900 2,160 Climbing Atlanta Center
04:56PM 32.0986 -82.2269 321° Northwest 416 479 27,000 2,100 Climbing Atlanta Center
04:57PM 32.1833 -82.3136 319° Northwest 405 466 29,100 1,980 Climbing Atlanta Center
04:58PM 32.2594 -82.3858 321° Northwest 405 466 31,000 1,440 Climbing Atlanta Center
04:59PM 32.3503 -82.4825 318° Northwest 418 481 32,000 900 Climbing Atlanta Center
05:00PM 32.4456 -82.5719 322° Northwest 430 495 32,800 840 Climbing Atlanta Center
05:01PM 32.5425 -82.6664 321° Northwest 442 509 33,700 840 Climbing Atlanta Center
05:02PM 32.6397 -82.7661 319° Northwest 449 517 34,500 840 Climbing Atlanta Center
05:03PM 32.7119 -82.8908 305° West 449 517 35,400 900 Climbing Atlanta Center
05:04PM 32.7881 -83.0208 305° West 466 536 36,300 900 Climbing Atlanta Center
05:05PM 32.8581 -83.1461 304° West 466 536 37,200 1,440 Climbing Atlanta Center
05:06PM 32.9319 -83.2717 305° West 466 536 39,200 1,380 Climbing Atlanta Center
05:07PM 32.9994 -83.3922 304° West 454 522 40,000 360 Climbing Atlanta Center
05:08PM 33.0814 -83.5231 307° West 448 516 40,000  Level Atlanta Center
05:09PM 33.1653 -83.6442 310° West 454 522 40,000  Level Atlanta Center
05:10PM 33.2719 -83.7333 325° Northwest 466 536 40,000 600 Level Atlanta Center
05:11PM 33.3850 -83.8272 325° Northwest 487 560 41,300 1,440 Climbing Atlanta Center
05:12PM 33.4914 -83.9142 326° Northwest 476 548 42,900 1,140 Climbing Atlanta Center
05:13PM 33.6000 -84.0014 326° Northwest 471 542 43,600 840 Climbing Atlanta Center
05:14PM 33.7044 -84.0936 324° Northwest 471 542 44,600 660 Climbing Atlanta Center
05:15PM 33.8003 -84.1939 319° Northwest 464 534 45,000 180 Climbing Atlanta Center
05:16PM 33.8919 -84.2967 317° Northwest 476 548 45,000  Level Atlanta Center
05:17PM 33.9983 -84.3919 323° Northwest 482 555 45,000  Level Atlanta Center
05:18PM 34.1400 -84.4906 330° Northwest 509 586 45,000  Level Atlanta Center
05:19PM 34.2522 -84.5842 325° Northwest 515 593 45,000  Level Atlanta Center
05:20PM 34.3644 -84.6731 327° Northwest 493 567 45,000  Level Atlanta Center
05:21PM 34.4683 -84.7544 327° Northwest 487 560 45,000  Level Atlanta Center
05:22PM 34.5764 -84.8436 326° Northwest 487 560 45,000  Level Atlanta Center
05:23PM 34.6947 -84.9406 326° Northwest 487 560 45,000  Level Atlanta Center
05:24PM 34.8044 -85.0303 326° Northwest 474 545 45,000  Level Atlanta Center
05:25PM 34.9144 -85.1228 325° Northwest 474 545 45,000  Level Atlanta Center
05:26PM 34.9819 -85.2606 301° West 465 535 45,000  Level Atlanta Center
05:27PM 35.0117 -85.4233 283° West 465 535 45,000  Level Atlanta Center
05:28PM 35.0408 -85.5889 282° West 482 555 45,000  Level Atlanta Center
05:29PM 35.0700 -85.7542 282° West 494 568 45,000  Level Atlanta Center
05:30PM 35.1031 -85.9150 284° West 500 575 45,000  Level Atlanta Center
05:31PM 35.1339 -86.0833 283° West 500 575 45,000  Level Atlanta Center
05:32PM 35.1606 -86.2261 283° West 506 582 45,000  Level Atlanta Center
05:34PM 35.2072 -86.5400 280° West 524 603 45,000  Level Memphis Center
05:35PM 35.2372 -86.7092 282° West 517 595 45,000  Level Memphis Center
05:36PM 35.2686 -86.8553 285° West 510 587 45,000  Level Memphis Center
05:37PM 35.3006 -87.0269 283° West 510 587 45,000  Level Memphis Center
05:38PM 35.3547 -87.1850 293° West 504 580 45,000  Level Memphis Center
05:39PM 35.4194 -87.3583 295° West 504 580 45,000  Level Memphis Center
05:40PM 35.4794 -87.5142 295° West 509 586 45,000  Level Memphis Center
05:41PM 35.5367 -87.6500 297° West 509 586 45,000  Level Memphis Center
05:42PM 35.6025 -87.8036 298° West 509 586 45,000  Level Memphis Center
05:43PM 35.6661 -87.9600 297° West 507 583 45,000  Level Memphis Center
05:44PM 35.7294 -88.1117 297° West 507 583 45,000  Level Memphis Center
05:45PM 35.7992 -88.2736 298° West 488 562 45,000  Level Memphis Center
05:46PM 35.8642 -88.4256 298° West 488 562 45,000  Level Memphis Center
05:47PM 35.9289 -88.5781 298° West 488 562 45,000  Level Memphis Center
05:48PM 35.9956 -88.7278 299° West 493 567 45,000  Level Memphis Center
05:49PM 36.0600 -88.8806 298° West 493 567 45,000  Level Memphis Center
05:50PM 36.1264 -89.0336 298° West 493 567 45,000  Level Memphis Center
05:51PM 36.1819 -89.1664 297° West 493 567 45,000  Level Memphis Center
05:52PM 36.2481 -89.3225 298° West 493 567 45,000  Level Memphis Center
05:53PM 36.2847 -89.4969 285° West 505 581 45,000  Level Memphis Center
05:54PM 36.2900 -89.6694 272° West 527 606 45,000  Level Memphis Center
05:55PM 36.2908 -89.8369 270° West 505 581 45,000  Level Memphis Center
05:56PM 36.2958 -90.1039 271° West 496 571 45,000  Level Kansas City Center
05:57PM 36.2972 -90.2739 271° West 495 570 45,000  Level Kansas City Center
05:58PM 36.2989 -90.4439 271° West 493 567 45,000  Level Kansas City Center
05:59PM 36.2986 -90.6503 270° West 498 573 45,000  Level Kansas City Center
06:01PM 36.2992 -90.8194 270° West 494 568 45,000  Level Kansas City Center
06:02PM 36.2989 -90.9906 270° West 496 571 45,000  Level Kansas City Center
06:03PM 36.2956 -91.1964 269° West 495 570 45,000  Level Memphis Center
06:04PM 36.2922 -91.3689 269° West 495 570 45,000  Level Memphis Center
06:05PM 36.2906 -91.5414 269° West 495 570 45,000  Level Memphis Center
06:06PM 36.2911 -91.7139 270° West 495 570 45,000  Level Memphis Center
06:07PM 36.2953 -91.8839 272° West 495 570 45,000  Level Memphis Center
06:08PM 36.2931 -92.0539 269° West 495 570 45,000  Level Memphis Center
06:09PM 36.2906 -92.2289 269° West 495 570 45,000  Level Memphis Center
06:10PM 36.2881 -92.3986 269° West 495 570 45,000  Level Memphis Center
06:11PM 36.2872 -92.5686 270° West 495 570 45,000  Level Memphis Center
06:12PM 36.3131 -92.7367 281° West 495 570 45,000  Level Memphis Center
06:13PM 36.3411 -92.9128 281° West 507 583 45,000  Level Memphis Center
06:14PM 36.3603 -93.0783 278° West 507 583 45,000  Level Memphis Center
06:15PM 36.3503 -93.2506 266° West 502 578 45,000  Level Memphis Center
06:16PM 36.3236 -93.4119 258° West 502 578 45,000  Level Memphis Center
06:17PM 36.2900 -93.5806 256° West 502 578 45,000  Level Memphis Center
06:18PM 36.2542 -93.7569 256° West 497 572 45,000  Level Memphis Center
06:19PM 36.2203 -93.9225 256° West 497 572 45,000  Level Memphis Center
06:20PM 36.1844 -94.0831 255° West 491 565 45,000  Level Memphis Center
06:21PM 36.1522 -94.2461 256° West 491 565 45,000 -300 Level Memphis Center
06:22PM 36.1206 -94.3936 255° West 491 565 44,400 -780 Descending Memphis Center
06:23PM 36.0644 -94.6531 255° West 501 577 43,100 -600 Descending Kansas City Center
06:24PM 36.0272 -94.8242 255° West 508 585 43,000 -60 Descending Kansas City Center
06:25PM 35.9903 -94.9947 255° West 510 587 43,000  Level Kansas City Center
06:26PM 35.9547 -95.1592 255° West 498 573 43,000  Level Kansas City Center
06:27PM 35.9178 -95.3267 255° West 498 573 43,000  Level Kansas City Center
06:28PM 35.8811 -95.4958 255° West 504 580 43,000 -240 Level Kansas City Center
06:29PM 35.8414 -95.6647 254° West 508 585 42,600 -1,140 Descending Kansas City Center
06:30PM 35.7692 -95.8503 244° Southwest 503 579 40,700 -1,920 Descending Kansas City Center
06:32PM 35.7106 -96.0033 245° Southwest 497 572 38,700 -2,280 Descending Kansas City Center
06:33PM 35.6517 -96.1497 244° Southwest 488 562 36,000 -2,040 Descending Kansas City Center
06:34PM 35.5967 -96.2917 245° Southwest 472 543 34,600 -1,980 Descending Kansas City Center
06:35PM 35.5361 -96.4544 245° Southwest 475 547 32,100 -2,880 Descending Fort Worth Center
06:36PM 35.4747 -96.6158 245° Southwest 499 574 29,100 -3,480 Descending Fort Worth Center
06:37PM 35.4131 -96.7767 245° Southwest 518 596 25,200 -3,900 Descending Fort Worth Center
06:38PM 35.3594 -96.9197 245° Southwest 503 579 21,300 -4,200 Descending Fort Worth Center
06:39PM 35.3119 -97.0906 251° West 405 466 15,600 -4,500 Descending Fort Worth Center
06:40PM 35.3331 -97.2278 281° West 362 417 10,900 -3,540 Descending Fort Worth Center
06:41PM 35.3414 -97.2939 279° West 371 427 9,600 -2,760 Descending Fort Worth Center
06:42PM 35.3875 -97.4008 298° West 291 335 5,700 -2,100 Descending Fort Worth Center
06:43PM 35.4583 -97.4339 339° North 250 288 5,000 -600 Descending Fort Worth Center
06:44PM 35.5208 -97.4672 337° Northwest 222 255 4,500 -480 Descending Fort Worth Center
06:45PM 35.5625 -97.5233 312° West 215 247 4,000 -360 Descending Fort Worth Center
06:46PM 35.5897 -97.5819 300° West 220 253 3,900 -60 Descending Fort Worth Center
06:47PM 35.5500 -97.6075 208° Southwest 181 208 3,900 -480 Level Fort Worth Center
06:48PM 35.5000 -97.6072 180° South 157 181 3,000 -900 Descending Fort Worth Center